Time;durP1;ratioP1;P1;durP2;ratioP2;P2;SDS_P1;SDS_P2;PMS_P1;PMS_P2;Temp;Humidity;BMP_temperature;BMP_pressure;BME280_temperature;BME280_humidity;BME280_pressure;Samples;Min_cycle;Max_cycle;Signal;HPM_P1;HPM_P2
2021/03/04 00:02:24;;;;;;;71.93;42.10;;;;;;;5.72;77.38;101127.38;5015580;28;20211;-77
2021/03/04 00:04:50;;;;;;;69.50;39.70;;;;;;;5.70;77.68;101127.34;5014270;28;20236;-78
2021/03/04 00:07:16;;;;;;;68.93;40.77;;;;;;;5.65;77.02;101133.31;5015752;28;20674;-78
2021/03/04 00:09:43;;;;;;;72.07;40.27;;;;;;;5.54;77.69;101136.63;5014406;28;20223;-78
2021/03/04 00:12:09;;;;;;;64.77;38.90;;;;;;;5.45;78.08;101138.22;5069487;22;20222;-80
2021/03/04 00:14:35;;;;;;;71.90;41.57;;;;;;;5.37;79.17;101135.53;5059223;28;20216;-81
2021/03/04 00:17:01;;;;;;;68.67;40.70;;;;;;;5.36;79.03;101128.63;5059785;28;20208;-79
2021/03/04 00:19:27;;;;;;;73.03;42.30;;;;;;;5.19;79.60;101123.22;5060955;28;20205;-81
2021/03/04 00:21:53;;;;;;;73.17;43.27;;;;;;;5.15;79.90;101126.59;5060247;28;20770;-81
2021/03/04 00:24:19;;;;;;;67.60;41.87;;;;;;;5.09;80.53;101122.22;5061564;28;20698;-81
2021/03/04 00:26:45;;;;;;;71.13;41.20;;;;;;;5.01;80.62;101126.41;5060118;28;20739;-80
2021/03/04 00:29:12;;;;;;;75.57;42.83;;;;;;;4.87;81.29;101125.34;5060523;28;20208;-81
2021/03/04 00:31:38;;;;;;;73.90;42.20;;;;;;;4.67;81.70;101115.53;5060766;28;20293;-81
2021/03/04 00:34:04;;;;;;;79.43;44.27;;;;;;;4.58;82.55;101121.44;5062485;28;20202;-80
2021/03/04 00:36:30;;;;;;;75.77;42.90;;;;;;;4.49;83.44;101120.41;5059492;28;20206;-80
2021/03/04 00:38:56;;;;;;;79.60;46.00;;;;;;;4.35;83.93;101120.19;5057952;28;20212;-80
2021/03/04 00:41:22;;;;;;;84.97;47.37;;;;;;;4.31;84.17;101123.56;5057858;28;20259;-80
2021/03/04 00:43:49;;;;;;;80.60;45.37;;;;;;;4.30;84.25;101114.94;5058677;28;20211;-81
2021/03/04 00:46:14;;;;;;;83.23;46.73;;;;;;;4.35;84.19;101115.00;5058096;28;20553;-81
2021/03/04 00:48:40;;;;;;;79.70;46.77;;;;;;;4.27;84.23;101109.69;5058311;28;20299;-80
2021/03/04 00:51:06;;;;;;;76.40;45.30;;;;;;;4.22;84.10;101118.22;5058093;28;20683;-81
2021/03/04 00:53:32;;;;;;;87.33;48.23;;;;;;;4.20;84.22;101115.59;5058162;28;20208;-81
2021/03/04 00:55:58;;;;;;;80.33;46.47;;;;;;;4.14;84.66;101123.25;5056766;28;20652;-80
2021/03/04 00:58:24;;;;;;;90.07;49.27;;;;;;;4.05;85.79;101118.78;5058131;28;20213;-81
2021/03/04 01:00:51;;;;;;;89.50;50.17;;;;;;;3.98;85.80;101120.41;5056983;28;20641;-81
2021/03/04 01:03:17;;;;;;;84.33;48.30;;;;;;;4.02;85.83;101110.09;5057919;28;20210;-81
2021/03/04 01:05:43;;;;;;;90.93;48.50;;;;;;;4.13;85.33;101117.22;5057565;28;20232;-81
2021/03/04 01:08:09;;;;;;;90.67;49.73;;;;;;;4.13;86.01;101119.78;5057286;28;20202;-80
2021/03/04 01:10:36;;;;;;;84.77;47.60;;;;;;;4.26;85.05;101117.44;5055697;28;20225;-81
2021/03/04 01:13:02;;;;;;;81.93;47.33;;;;;;;4.41;84.92;101109.94;5057889;28;20656;-81
2021/03/04 01:15:30;;;;;;;102.73;54.50;;;;;;;4.21;86.31;101111.31;5057899;28;20232;-80
2021/03/04 01:17:57;;;;;;;107.47;57.47;;;;;;;4.19;87.02;101113.88;5057301;28;20197;-82
2021/03/04 01:20:23;;;;;;;99.83;53.70;;;;;;;4.19;88.00;101111.28;5056283;28;20202;-80
2021/03/04 01:22:49;;;;;;;110.00;58.47;;;;;;;4.22;88.65;101106.16;5056137;28;20230;-79
2021/03/04 01:25:17;;;;;;;120.33;57.27;;;;;;;4.31;88.36;101096.00;5056850;28;20693;-81
2021/03/04 01:27:43;;;;;;;141.90;56.93;;;;;;;4.30;88.57;101098.53;5055416;28;20209;-80
2021/03/04 01:30:11;;;;;;;113.90;58.53;;;;;;;4.41;88.71;101097.03;5057200;28;20576;-82
2021/03/04 01:32:38;;;;;;;143.27;55.63;;;;;;;4.56;88.44;101094.69;5056199;28;20229;-81
2021/03/04 01:35:06;;;;;;;175.53;54.93;;;;;;;4.47;88.64;101084.19;5057427;28;20256;-81
2021/03/04 01:37:32;;;;;;;106.37;55.53;;;;;;;4.53;87.94;101084.28;5056442;28;20560;-80
2021/03/04 01:39:58;;;;;;;133.40;53.50;;;;;;;4.59;88.59;101078.34;5057166;28;20267;-79
2021/03/04 01:42:24;;;;;;;235.03;56.73;;;;;;;4.32;89.03;101077.06;5056925;28;20645;-81
2021/03/04 01:44:50;;;;;;;118.80;57.23;;;;;;;4.33;89.27;101073.63;5055971;28;20248;-82
2021/03/04 01:47:18;;;;;;;107.47;56.47;;;;;;;4.45;89.45;101067.78;5056182;28;20204;-81
2021/03/04 01:49:44;;;;;;;121.67;55.83;;;;;;;4.36;89.59;101071.09;5056482;28;20814;-79
2021/03/04 01:52:11;;;;;;;156.67;55.80;;;;;;;4.31;89.89;101069.28;5056163;28;20225;-81
2021/03/04 01:54:37;;;;;;;135.03;59.33;;;;;;;4.33;89.69;101065.00;5055675;28;20210;-79
2021/03/04 01:57:04;;;;;;;114.20;56.37;;;;;;;4.36;89.75;101058.19;5055224;28;20203;-81
2021/03/04 01:59:30;;;;;;;115.37;58.13;;;;;;;4.42;89.78;101051.34;5055953;28;20208;-81
2021/03/04 02:02:21;;;;;;;119.40;57.03;;;;;;;4.31;89.52;101053.78;5055099;28;20222;-80
2021/03/04 02:04:48;;;;;;;123.23;58.67;;;;;;;4.18;90.44;101061.34;5056822;28;20290;-80
2021/03/04 02:07:23;;;;;;;112.50;56.70;;;;;;;4.24;90.66;101063.16;5055241;28;20200;-80
2021/03/04 02:09:55;;;;;;;135.53;60.27;;;;;;;4.26;90.42;101065.75;5055705;28;20208;-81
2021/03/04 02:12:29;;;;;;;115.30;57.70;;;;;;;4.23;90.46;101063.13;5055299;28;20238;-81
2021/03/04 02:15:02;;;;;;;118.73;59.30;;;;;;;4.27;90.40;101062.31;5056383;28;20680;-81
2021/03/04 02:17:32;;;;;;;112.93;56.20;;;;;;;4.34;89.82;101062.47;5055293;28;20730;-81
2021/03/04 02:20:03;;;;;;;110.43;55.93;;;;;;;4.17;90.21;101059.56;5055154;28;20279;-81
2021/03/04 02:22:50;;;;;;;115.77;56.43;;;;;;;4.13;89.82;101057.78;5055695;28;20240;-79
2021/03/04 02:25:21;;;;;;;105.13;51.43;;;;;;;4.26;89.49;101050.22;5052568;28;20210;-81
2021/03/04 02:27:50;;;;;;;113.27;55.37;;;;;;;4.21;89.47;101039.84;5055432;28;20211;-80
2021/03/04 02:30:19;;;;;;;113.23;55.03;;;;;;;4.20;89.95;101043.25;5056181;28;20208;-80
2021/03/04 02:32:48;;;;;;;109.93;53.13;;;;;;;4.36;89.02;101037.50;5055345;28;20207;-81
2021/03/04 02:35:16;;;;;;;104.87;53.27;;;;;;;4.17;89.53;101032.88;5056589;28;20201;-81
2021/03/04 02:37:44;;;;;;;106.47;53.63;;;;;;;4.21;89.53;101029.50;5055861;28;20255;-81
2021/03/04 02:40:12;;;;;;;111.00;52.03;;;;;;;4.30;89.00;101026.19;5055773;28;20344;-80
2021/03/04 02:42:40;;;;;;;96.60;50.13;;;;;;;4.31;89.05;101031.38;5054170;28;20228;-81
2021/03/04 02:45:09;;;;;;;103.40;49.97;;;;;;;4.18;88.94;101021.69;5056142;28;20251;-79
2021/03/04 02:47:38;;;;;;;104.50;51.10;;;;;;;4.15;89.27;101026.81;5055496;28;20692;-81
2021/03/04 02:50:06;;;;;;;108.73;50.90;;;;;;;4.14;88.97;101032.81;5055390;28;20212;-80
2021/03/04 02:52:33;;;;;;;102.27;49.50;;;;;;;4.14;88.92;101028.53;5055104;28;20231;-80
2021/03/04 02:55:01;;;;;;;108.50;50.50;;;;;;;4.02;89.03;101024.84;5055301;28;20206;-80
2021/03/04 02:57:28;;;;;;;106.50;49.13;;;;;;;3.95;89.62;101029.91;5054996;28;20209;-80
2021/03/04 02:59:55;;;;;;;100.20;48.37;;;;;;;3.98;89.36;101027.41;5055542;28;20285;-80
2021/03/04 03:02:23;;;;;;;105.40;48.87;;;;;;;4.08;88.69;101020.66;5054726;28;20233;-80
2021/03/04 03:04:50;;;;;;;102.37;48.47;;;;;;;3.99;88.22;101023.09;5055395;28;20266;-80
2021/03/04 03:07:17;;;;;;;97.33;47.77;;;;;;;4.07;88.41;101018.94;5055001;28;20202;-80
2021/03/04 03:09:45;;;;;;;92.97;46.00;;;;;;;4.18;88.05;101016.50;5055141;28;20670;-80
2021/03/04 03:12:13;;;;;;;93.57;46.17;;;;;;;4.27;87.39;101013.22;5055159;28;21021;-79
2021/03/04 03:14:39;;;;;;;91.47;46.33;;;;;;;4.30;86.90;101008.09;5055577;28;20215;-80
2021/03/04 03:17:06;;;;;;;90.83;44.10;;;;;;;4.32;86.24;101009.88;5055780;28;20198;-80
2021/03/04 03:19:34;;;;;;;86.20;45.07;;;;;;;4.23;86.18;100994.22;5056016;28;20229;-80
2021/03/04 03:22:00;;;;;;;89.47;45.07;;;;;;;4.20;86.27;100991.56;5055449;28;20218;-80
2021/03/04 03:24:26;;;;;;;90.77;47.83;;;;;;;4.07;86.61;100994.81;5054964;28;20641;-80
2021/03/04 03:26:52;;;;;;;84.77;44.73;;;;;;;4.18;86.78;100985.50;5055466;28;20908;-80
2021/03/04 03:29:18;;;;;;;87.07;46.67;;;;;;;4.14;86.61;100986.31;5055080;28;20320;-81
2021/03/04 03:31:48;;;;;;;90.80;44.50;;;;;;;4.18;86.13;100978.66;5055467;28;20251;-80
2021/03/04 03:34:14;;;;;;;89.07;45.07;;;;;;;4.02;86.32;100983.53;5070920;28;20174;-81
2021/03/04 03:36:42;;;;;;;88.77;45.07;;;;;;;3.96;87.25;100990.34;5076237;28;20197;-81
2021/03/04 03:39:09;;;;;;;94.10;47.17;;;;;;;3.94;87.22;100993.72;5076964;28;20194;-81
2021/03/04 03:41:36;;;;;;;94.37;45.77;;;;;;;4.00;86.73;100986.09;5077524;28;20210;-79
2021/03/04 03:44:02;;;;;;;100.07;47.20;;;;;;;3.81;87.21;100991.81;5077365;28;20174;-80
2021/03/04 03:46:31;;;;;;;89.33;45.93;;;;;;;3.82;87.59;100991.81;5077540;28;20242;-80
2021/03/04 03:48:59;;;;;;;103.17;48.17;;;;;;;3.75;87.47;100984.81;5070896;28;20225;-79
2021/03/04 03:51:25;;;;;;;95.43;46.47;;;;;;;3.82;87.26;100978.91;5061843;28;20226;-78
2021/03/04 03:53:54;;;;;;;93.77;46.10;;;;;;;3.74;87.68;100990.81;5060929;28;20229;-78
2021/03/04 03:56:21;;;;;;;102.20;46.87;;;;;;;3.74;87.39;100986.50;5055424;28;20612;-77
2021/03/04 03:58:48;;;;;;;96.60;46.50;;;;;;;3.76;87.11;100976.22;5059552;28;20202;-79
2021/03/04 04:01:15;;;;;;;96.57;45.43;;;;;;;3.94;86.96;100973.97;5058067;28;20217;-78
2021/03/04 04:03:40;;;;;;;99.97;45.93;;;;;;;3.93;87.33;100967.03;5057975;28;20224;-78
2021/03/04 04:06:07;;;;;;;98.07;47.40;;;;;;;4.05;86.90;100965.50;5058524;28;20225;-77
2021/03/04 04:08:34;;;;;;;90.07;44.23;;;;;;;4.13;86.26;100969.94;5059445;28;20202;-79
2021/03/04 04:11:00;;;;;;;102.07;46.73;;;;;;;3.96;86.47;100973.97;5059962;28;20233;-79
2021/03/04 04:13:26;;;;;;;102.67;47.47;;;;;;;3.92;86.54;100974.75;5061101;28;20208;-79
2021/03/04 04:15:52;;;;;;;94.10;45.90;;;;;;;3.87;86.52;100974.69;5060643;28;20193;-80
2021/03/04 04:18:20;;;;;;;94.73;45.60;;;;;;;4.01;85.97;100967.16;5061276;28;20202;-81
2021/03/04 04:20:47;;;;;;;98.10;44.93;;;;;;;3.95;86.38;100954.16;5060071;28;20762;-81
2021/03/04 04:23:13;;;;;;;96.97;46.80;;;;;;;3.95;86.25;100956.75;5060071;28;20217;-80
2021/03/04 04:25:47;;;;;;;97.20;46.97;;;;;;;3.77;86.53;100963.34;5060556;28;20296;-79
2021/03/04 04:28:14;;;;;;;96.63;46.47;;;;;;;3.83;86.51;100953.97;5061233;28;20194;-79
2021/03/04 04:30:39;;;;;;;95.60;45.43;;;;;;;3.96;86.43;100953.31;5060536;28;20218;-79
2021/03/04 04:33:05;;;;;;;98.40;46.00;;;;;;;3.94;86.68;100952.41;5060780;28;20268;-79
2021/03/04 04:35:31;;;;;;;106.03;47.93;;;;;;;3.92;86.12;100941.19;5060283;28;20197;-79
2021/03/04 04:37:57;;;;;;;98.00;44.63;;;;;;;3.77;86.40;100950.41;5060934;28;20344;-80
2021/03/04 04:40:23;;;;;;;94.40;44.77;;;;;;;3.85;85.77;100941.94;5060181;28;20241;-80
2021/03/04 04:42:49;;;;;;;93.93;44.40;;;;;;;3.88;85.71;100937.69;5059760;28;20217;-80
2021/03/04 04:45:16;;;;;;;90.10;44.40;;;;;;;3.88;86.40;100940.25;5060453;28;20677;-80
2021/03/04 04:47:41;;;;;;;96.00;45.90;;;;;;;3.84;85.62;100946.22;5059297;28;20549;-80
2021/03/04 04:50:08;;;;;;;100.77;46.30;;;;;;;3.79;86.05;100945.28;5060445;28;20205;-80
2021/03/04 04:52:34;;;;;;;97.23;44.90;;;;;;;3.85;86.28;100939.38;5059821;28;20253;-79
2021/03/04 04:55:00;;;;;;;97.10;44.77;;;;;;;3.90;85.62;100940.28;5059153;28;20211;-79
2021/03/04 04:57:26;;;;;;;97.30;46.93;;;;;;;3.96;85.65;100941.28;5059264;28;20210;-79
2021/03/04 04:59:52;;;;;;;98.73;46.07;;;;;;;4.05;84.88;100935.38;5059572;28;20207;-80
2021/03/04 05:02:19;;;;;;;96.60;45.03;;;;;;;4.06;84.97;100933.66;5059069;28;20606;-79
2021/03/04 05:04:45;;;;;;;93.87;45.47;;;;;;;4.11;84.75;100930.31;5058736;28;20225;-79
2021/03/04 05:07:10;;;;;;;95.37;43.17;;;;;;;3.95;84.70;100930.91;5059604;28;20208;-79
2021/03/04 05:09:36;;;;;;;85.40;43.37;;;;;;;3.86;84.59;100934.19;5059057;28;20208;-79
2021/03/04 05:12:03;;;;;;;91.57;43.43;;;;;;;3.69;84.74;100933.06;5057982;28;20319;-79
2021/03/04 05:14:29;;;;;;;97.03;43.13;;;;;;;3.31;86.33;100922.91;5057743;28;20206;-79
2021/03/04 05:16:55;;;;;;;95.97;44.07;;;;;;;3.23;87.10;100924.47;5057004;28;20210;-79
2021/03/04 05:19:22;;;;;;;108.70;46.93;;;;;;;3.27;87.12;100932.31;5056400;28;20221;-79
2021/03/04 05:21:47;;;;;;;110.07;47.03;;;;;;;3.24;87.71;100940.00;5058423;28;20237;-79
2021/03/04 05:24:13;;;;;;;97.67;44.40;;;;;;;3.31;86.60;100934.13;5058339;28;20281;-78
2021/03/04 05:26:39;;;;;;;98.07;43.90;;;;;;;3.41;86.42;100930.00;5057427;28;20257;-79
2021/03/04 05:29:05;;;;;;;101.77;45.33;;;;;;;3.36;86.89;100929.91;5058198;28;20222;-79
2021/03/04 05:31:31;;;;;;;101.43;44.90;;;;;;;3.33;87.07;100929.88;5058233;28;20232;-79
2021/03/04 05:33:57;;;;;;;104.77;44.67;;;;;;;3.37;86.64;100923.06;5056913;28;20217;-79
2021/03/04 05:36:24;;;;;;;101.93;43.63;;;;;;;3.48;86.89;100912.91;5056523;28;20198;-79
2021/03/04 05:38:50;;;;;;;104.87;48.10;;;;;;;3.37;86.67;100916.16;5056816;28;20205;-81
2021/03/04 05:41:20;;;;;;;106.27;46.43;;;;;;;3.26;86.63;100912.50;5056965;28;20221;-79
2021/03/04 05:43:46;;;;;;;120.80;49.20;;;;;;;3.25;86.90;100891.84;5057495;28;20578;-79
2021/03/04 05:46:14;;;;;;;112.53;48.00;;;;;;;3.19;86.89;100902.91;5057151;28;20250;-79
2021/03/04 05:48:43;;;;;;;104.77;46.27;;;;;;;3.33;87.64;100896.31;5057381;28;20198;-79
2021/03/04 05:51:13;;;;;;;108.70;46.47;;;;;;;3.46;87.05;100891.38;5057271;28;20222;-81
2021/03/04 05:53:41;;;;;;;116.50;47.47;;;;;;;3.20;87.42;100889.19;5056322;28;20583;-79
2021/03/04 05:56:08;;;;;;;121.63;50.20;;;;;;;2.94;89.06;100884.41;5056272;28;20209;-78
2021/03/04 05:58:35;;;;;;;137.87;50.10;;;;;;;3.05;89.26;100891.47;5057334;28;20201;-80
2021/03/04 06:01:02;;;;;;;122.67;49.53;;;;;;;3.17;89.06;100887.44;5056401;28;20700;-79
2021/03/04 06:03:29;;;;;;;126.47;49.50;;;;;;;3.06;88.31;100893.22;5056779;28;20217;-79
2021/03/04 06:05:55;;;;;;;132.90;50.40;;;;;;;3.16;88.90;100889.97;5055921;28;20228;-79
2021/03/04 06:08:20;;;;;;;135.17;51.47;;;;;;;3.03;89.07;100894.00;5056840;28;20616;-79
2021/03/04 06:10:49;;;;;;;131.83;53.03;;;;;;;3.09;89.55;100888.09;5037818;28;526797;-80
2021/03/04 06:13:15;;;;;;;131.03;49.47;;;;;;;3.13;88.91;100887.31;5049793;22;20227;-80
2021/03/04 06:15:41;;;;;;;122.73;47.47;;;;;;;3.11;88.78;100892.47;5032882;28;20262;-81
2021/03/04 06:18:07;;;;;;;119.33;47.60;;;;;;;3.08;88.67;100892.41;5028625;28;20252;-80
2021/03/04 06:20:37;;;;;;;117.67;47.93;;;;;;;3.10;89.09;100888.16;5033102;28;20264;-81
2021/03/04 06:23:03;;;;;;;116.03;46.43;;;;;;;3.21;88.88;100890.94;5036779;28;20230;-80
2021/03/04 06:25:29;;;;;;;108.97;45.80;;;;;;;3.35;88.36;100892.06;5053130;28;20227;-80
2021/03/04 06:27:56;;;;;;;109.30;44.90;;;;;;;3.39;87.50;100882.66;5052003;28;20205;-82
2021/03/04 06:30:23;;;;;;;108.13;45.17;;;;;;;3.43;87.47;100897.34;5054157;28;20207;-82
2021/03/04 06:32:57;;;;;;;108.70;43.57;;;;;;;3.32;87.55;100904.03;5053166;28;20233;-82
2021/03/04 06:35:24;;;;;;;104.47;43.50;;;;;;;3.32;87.43;100904.88;5053692;28;20201;-79
2021/03/04 06:37:51;;;;;;;96.80;41.73;;;;;;;3.33;86.78;100904.06;5048633;28;20603;-82
2021/03/04 06:40:19;;;;;;;96.60;40.93;;;;;;;3.27;86.99;100906.53;5053669;28;20280;-81
2021/03/04 06:42:45;;;;;;;101.10;43.07;;;;;;;3.28;87.37;100903.09;5049159;28;20230;-82
2021/03/04 06:45:27;;;;;;;102.63;42.57;;;;;;;3.42;87.52;100897.31;5053688;28;20232;-81
2021/03/04 06:48:05;;;;;;;101.40;43.43;;;;;;;3.25;86.88;100894.41;5053175;28;20206;-82
2021/03/04 06:50:31;;;;;;;115.03;44.97;;;;;;;3.22;87.21;100902.13;5045773;28;20613;-81
2021/03/04 06:52:57;;;;;;;112.47;43.47;;;;;;;3.28;87.22;100889.34;5038054;28;20241;-81
2021/03/04 06:55:23;;;;;;;108.57;44.30;;;;;;;3.28;87.75;100890.19;5053811;28;20206;-82
2021/03/04 06:57:59;;;;;;;119.37;44.33;;;;;;;3.31;87.99;100894.53;5049030;28;20203;-81
2021/03/04 07:00:27;;;;;;;108.00;42.33;;;;;;;3.18;87.96;100894.31;5053177;28;20209;-80
2021/03/04 07:02:54;;;;;;;114.10;46.07;;;;;;;3.28;87.83;100895.34;5049208;28;20229;-81
2021/03/04 07:05:21;;;;;;;122.73;45.33;;;;;;;3.10;88.28;100887.28;5053818;28;20219;-81
2021/03/04 07:07:51;;;;;;;119.77;44.17;;;;;;;3.15;88.13;100883.06;5049464;28;20924;-81
2021/03/04 07:10:18;;;;;;;124.00;45.17;;;;;;;3.10;87.96;100884.72;5052909;28;20222;-83
2021/03/04 07:12:45;;;;;;;122.47;45.47;;;;;;;3.18;88.41;100880.56;5052121;28;20234;-83
2021/03/04 07:15:13;;;;;;;114.73;43.03;;;;;;;3.17;88.46;100879.69;5052215;28;20208;-83
2021/03/04 07:17:41;;;;;;;126.30;44.83;;;;;;;3.29;88.60;100868.72;5048651;28;20210;-82
2021/03/04 07:20:13;;;;;;;131.53;44.57;;;;;;;3.23;88.33;100872.88;5051855;28;20637;-82
2021/03/04 07:22:40;;;;;;;124.17;42.50;;;;;;;3.26;88.05;100870.38;5048894;28;20234;-84
2021/03/04 07:25:07;;;;;;;125.13;42.30;;;;;;;3.29;88.66;100871.31;5051855;28;20226;-81
2021/03/04 07:27:34;;;;;;;111.30;40.90;;;;;;;3.43;88.16;100868.97;5051145;28;20202;-80
2021/03/04 07:30:00;;;;;;;125.77;39.30;;;;;;;3.26;87.88;100867.78;5051124;28;20201;-81
2021/03/04 07:32:26;;;;;;;126.03;44.03;;;;;;;3.08;88.93;100882.09;5045439;28;20310;-80
2021/03/04 07:34:54;;;;;;;144.30;42.13;;;;;;;3.09;89.13;100886.44;5046556;28;20206;-82
2021/03/04 07:37:20;;;;;;;159.73;42.80;;;;;;;3.01;88.43;100892.25;5050666;28;20229;-80
2021/03/04 07:39:47;;;;;;;153.47;41.40;;;;;;;2.97;88.90;100899.06;5049380;28;20200;-81
2021/03/04 07:42:18;;;;;;;129.57;41.70;;;;;;;3.08;89.00;100896.72;5050535;28;20287;-83
2021/03/04 07:44:44;;;;;;;121.67;41.20;;;;;;;3.09;89.61;100895.84;5051320;28;20737;-81
2021/03/04 07:47:11;;;;;;;126.03;41.13;;;;;;;2.89;88.91;100905.78;5051113;28;20206;-81
2021/03/04 07:49:39;;;;;;;115.50;40.57;;;;;;;3.02;89.35;100906.91;5054895;28;20752;-82
2021/03/04 07:52:11;;;;;;;124.63;41.07;;;;;;;2.93;89.42;100905.00;5051785;28;20224;-83
2021/03/04 07:54:39;;;;;;;117.83;40.27;;;;;;;2.80;89.70;100909.06;5053426;28;20669;-81
2021/03/04 07:57:07;;;;;;;139.90;42.43;;;;;;;2.78;90.36;100908.16;5051452;28;20198;-81
2021/03/04 07:59:33;;;;;;;125.93;38.77;;;;;;;2.78;90.40;100905.56;5052264;28;20674;-81
2021/03/04 08:02:01;;;;;;;122.93;39.97;;;;;;;2.75;90.52;100902.91;5054585;28;20255;-81
2021/03/04 08:04:28;;;;;;;116.77;38.83;;;;;;;2.78;90.21;100900.41;5052249;28;20583;-81
2021/03/04 08:06:55;;;;;;;130.73;38.83;;;;;;;2.74;90.49;100894.31;5050493;28;20227;-80
2021/03/04 08:09:30;;;;;;;136.37;39.20;;;;;;;2.54;90.96;100893.91;5054198;28;20211;-82
2021/03/04 08:12:12;;;;;;;121.83;37.77;;;;;;;2.49;91.62;100887.78;5050406;28;20200;-80
2021/03/04 08:14:40;;;;;;;119.63;37.97;;;;;;;2.59;91.28;100889.72;5053590;28;20687;-82
2021/03/04 08:17:07;;;;;;;120.33;38.00;;;;;;;2.65;91.64;100890.69;5051634;28;20194;-82
2021/03/04 08:19:34;;;;;;;110.00;38.87;;;;;;;2.78;90.41;100887.53;5048947;28;20578;-82
2021/03/04 08:22:04;;;;;;;109.10;36.83;;;;;;;2.81;90.83;100886.72;5050155;28;20229;-81
2021/03/04 08:24:33;;;;;;;98.20;35.40;;;;;;;2.91;90.29;100875.75;5049057;28;20607;-80
2021/03/04 08:27:00;;;;;;;96.87;33.97;;;;;;;2.70;90.22;100879.63;5050718;28;20221;-81
2021/03/04 08:29:26;;;;;;;102.97;35.83;;;;;;;2.95;90.61;100887.84;5051736;28;20243;-81
2021/03/04 08:31:55;;;;;;;97.43;33.03;;;;;;;3.04;89.75;100887.16;5050626;28;20207;-79
2021/03/04 08:34:21;;;;;;;96.77;33.43;;;;;;;3.07;89.18;100876.91;5047755;28;20225;-83
2021/03/04 08:36:49;;;;;;;86.67;32.53;;;;;;;3.03;88.93;100873.38;5049304;28;20195;-81
2021/03/04 08:39:15;;;;;;;87.37;32.53;;;;;;;3.05;89.06;100870.84;5052686;28;20206;-83
2021/03/04 08:41:53;;;;;;;82.37;30.50;;;;;;;2.82;88.70;100868.72;5055237;28;20197;-82
2021/03/04 08:44:19;;;;;;;87.93;30.17;;;;;;;2.94;89.00;100865.50;5056571;28;20201;-82
2021/03/04 08:46:50;;;;;;;86.43;31.60;;;;;;;3.06;88.97;100863.13;5057725;28;20226;-82
2021/03/04 08:49:19;;;;;;;73.87;28.87;;;;;;;3.14;88.22;100855.53;5049299;28;20203;-80
2021/03/04 08:51:45;;;;;;;72.47;29.23;;;;;;;2.91;87.93;100853.38;5044656;28;20250;-80
2021/03/04 08:54:22;;;;;;;78.93;29.10;;;;;;;2.93;88.93;100856.00;5052295;28;20659;-80
2021/03/04 08:57:02;;;;;;;73.53;29.63;;;;;;;2.98;88.18;100855.25;5052461;28;20205;-82
2021/03/04 08:59:29;;;;;;;75.23;28.87;;;;;;;2.91;87.63;100855.09;5053532;28;20221;-81
2021/03/04 09:01:55;;;;;;;77.80;28.70;;;;;;;3.06;87.81;100846.81;5047618;28;20227;-79
2021/03/04 09:04:23;;;;;;;69.40;26.80;;;;;;;3.15;87.53;100845.25;5055170;28;20205;-81
2021/03/04 09:06:50;;;;;;;69.90;26.90;;;;;;;3.15;87.41;100839.22;5050411;28;20215;-82
2021/03/04 09:09:24;;;;;;;77.80;29.63;;;;;;;3.07;87.86;100841.69;5052137;28;20222;-81
2021/03/04 09:11:50;;;;;;;73.13;28.53;;;;;;;3.01;88.29;100841.53;5055779;28;20229;-82
2021/03/04 09:14:18;;;;;;;73.60;28.67;;;;;;;3.11;87.21;100833.16;5051727;28;20677;-82
2021/03/04 09:16:46;;;;;;;74.57;27.87;;;;;;;3.03;87.58;100832.13;5049072;28;20198;-82
2021/03/04 09:19:12;;;;;;;70.97;27.33;;;;;;;2.85;87.85;100842.09;5053359;28;20209;-79
2021/03/04 09:21:38;;;;;;;90.60;28.90;;;;;;;2.71;89.08;100842.69;5051932;28;20273;-81
2021/03/04 09:24:05;;;;;;;72.90;27.97;;;;;;;2.85;89.18;100844.69;5052932;28;20229;-83
2021/03/04 09:26:32;;;;;;;80.97;28.97;;;;;;;2.90;88.44;100853.38;5048395;28;20229;-82
2021/03/04 09:28:58;;;;;;;66.73;25.50;;;;;;;3.00;87.49;100841.53;5053640;28;20790;-82
2021/03/04 09:31:25;;;;;;;57.67;24.63;;;;;;;2.96;86.85;100844.03;5051047;28;20197;-84
2021/03/04 09:33:57;;;;;;;59.80;25.43;;;;;;;2.77;87.30;100835.13;5049474;28;20242;-85
2021/03/04 09:36:23;;;;;;;63.50;25.07;;;;;;;2.92;87.60;100837.09;5047878;28;20190;-82
2021/03/04 09:38:51;;;;;;;56.93;25.03;;;;;;;3.05;87.05;100840.75;5050098;28;20210;-83
2021/03/04 09:41:18;;;;;;;58.07;24.13;;;;;;;3.21;86.45;100844.50;5047978;28;21579;-82
2021/03/04 09:43:45;;;;;;;52.40;22.63;;;;;;;3.40;86.17;100837.94;5049093;28;20946;-82
2021/03/04 09:46:13;;;;;;;55.80;23.07;;;;;;;3.53;85.68;100847.63;5048017;28;20562;-84
2021/03/04 09:48:40;;;;;;;52.33;24.43;;;;;;;3.57;84.64;100853.72;5050290;28;20197;-82
2021/03/04 09:51:06;;;;;;;45.40;22.60;;;;;;;3.27;86.00;100854.94;5050615;28;20839;-82
2021/03/04 09:53:43;;;;;;;53.40;20.83;;;;;;;3.31;85.01;100861.88;5055144;28;20230;-84
2021/03/04 09:56:09;;;;;;;48.23;20.87;;;;;;;3.14;86.21;100861.56;5049698;28;20652;-81
2021/03/04 09:58:42;;;;;;;54.13;22.07;;;;;;;3.14;86.09;100859.00;5050803;28;20328;-82
2021/03/04 10:01:08;;;;;;;49.63;21.37;;;;;;;3.10;86.33;100851.19;5051045;28;20190;-80
2021/03/04 10:03:36;;;;;;;36.37;18.90;;;;;;;3.02;86.04;100863.94;5050710;28;20559;-80
2021/03/04 10:06:05;;;;;;;40.07;18.43;;;;;;;2.94;85.67;100863.78;5042561;28;20215;-79
2021/03/04 10:08:37;;;;;;;38.20;17.90;;;;;;;2.97;85.53;100860.38;5051561;28;20201;-80
2021/03/04 10:11:03;;;;;;;37.63;18.63;;;;;;;2.94;86.30;100865.50;5050999;28;20205;-80
2021/03/04 10:13:30;;;;;;;36.90;17.57;;;;;;;2.91;85.64;100868.88;5044809;28;20227;-82
2021/03/04 10:15:57;;;;;;;41.73;18.13;;;;;;;2.90;85.66;100864.56;5051094;28;20256;-82
2021/03/04 10:18:22;;;;;;;37.57;17.40;;;;;;;2.99;86.17;100871.59;5049810;28;20202;-81
2021/03/04 10:20:49;;;;;;;31.00;17.87;;;;;;;2.77;85.56;100865.16;5050059;28;20731;-82
2021/03/04 10:23:16;;;;;;;31.07;17.00;;;;;;;2.85;86.09;100866.16;5053405;28;20245;-81
2021/03/04 10:25:43;;;;;;;33.87;17.30;;;;;;;2.67;87.11;100868.41;5052821;28;20221;-80
2021/03/04 10:28:09;;;;;;;34.83;17.07;;;;;;;2.70;86.26;100871.91;5046820;28;20271;-80
2021/03/04 10:30:37;;;;;;;33.17;17.43;;;;;;;2.76;86.14;100873.75;5047200;28;20201;-79
2021/03/04 10:33:04;;;;;;;30.77;15.97;;;;;;;2.78;86.48;100877.22;5049011;28;20255;-81
2021/03/04 10:35:30;;;;;;;30.43;16.03;;;;;;;3.01;86.45;100869.91;5050704;28;20194;-81
2021/03/04 10:37:57;;;;;;;28.50;16.17;;;;;;;2.95;84.69;100862.06;5048615;28;20202;-80
2021/03/04 10:40:24;;;;;;;24.87;15.23;;;;;;;3.11;84.88;100853.78;5047000;28;20197;-80
2021/03/04 10:42:50;;;;;;;20.50;14.23;;;;;;;3.20;84.98;100855.66;5046548;28;20228;-80
2021/03/04 10:45:18;;;;;;;24.73;14.50;;;;;;;3.15;85.08;100857.28;5049688;28;20656;-81
2021/03/04 10:47:45;;;;;;;25.77;15.20;;;;;;;3.03;85.16;100857.91;5048854;28;20199;-79
2021/03/04 10:50:13;;;;;;;28.33;16.73;;;;;;;2.84;86.16;100861.88;5047440;28;20677;-80
2021/03/04 10:52:39;;;;;;;28.63;17.07;;;;;;;2.92;85.71;100856.88;5043284;28;20225;-79
2021/03/04 10:55:07;;;;;;;30.40;17.67;;;;;;;2.87;85.92;100863.63;5048216;28;20263;-81
2021/03/04 10:57:34;;;;;;;34.00;15.83;;;;;;;2.77;85.93;100865.16;5044725;28;20199;-80
2021/03/04 11:00:00;;;;;;;34.23;16.90;;;;;;;2.93;86.64;100866.31;5047485;28;20202;-79
2021/03/04 11:02:26;;;;;;;30.17;17.07;;;;;;;2.92;86.12;100865.47;5042728;28;20251;-80
2021/03/04 11:04:52;;;;;;;30.77;17.43;;;;;;;2.87;86.51;100873.94;5047143;28;20290;-80
2021/03/04 11:07:18;;;;;;;32.37;17.67;;;;;;;2.94;86.25;100873.22;5042078;28;20243;-81
2021/03/04 11:09:43;;;;;;;36.23;17.20;;;;;;;2.98;86.83;100878.47;5047846;28;20205;-81
2021/03/04 11:12:09;;;;;;;26.93;14.87;;;;;;;3.05;85.91;100873.41;5044183;28;20238;-80
2021/03/04 11:14:37;;;;;;;34.07;17.40;;;;;;;3.01;85.87;100874.22;5045961;28;20194;-80
2021/03/04 11:17:04;;;;;;;32.83;16.90;;;;;;;2.96;86.72;100879.28;5043660;28;20220;-79